Acacia Lake, Texas
Current Conditions -  °F | °C
As of 2:53 AM on Friday 24 Oct 2014 (Local Time) from KBRO Reporting Station
Clear Clear  
Wind Chill: 19°   Ceiling: Unl
Heat Index: 19°   Visibility: 7mi
Dew Point: 18°   Wind: 3mph
Humidity: 93%   Direction: 320°NW
Pressure: 30.06"   Gusts: NA
Location:  26.0002°N, 97.5729°W
Report Text: KBRO 240753Z 32003KT 7SM CLR 19/18 A3006 RMK AO2 SLP179 T01940183
Loading
Personal Weather Stations






























Interactive Weather Map
Tropical Storm Tracking
New forecast layout! Learn more

10-Day Weather Forecast

Advertisements
Track Severe Weather on mobile